Time;durP1;ratioP1;P1;durP2;ratioP2;P2;SDS_P1;SDS_P2;PMS_P1;PMS_P2;Temp;Humidity;BMP_temperature;BMP_pressure;BME280_temperature;BME280_humidity;BME280_pressure;Samples;Min_cycle;Max_cycle;Signal;HPM_P1;HPM_P2
2021/07/06 00:01:54;;;;;;;;;;;;;;;24.26;53.90;100727.97;5030670;28;97228;-82
2021/07/06 00:04:23;;;;;;;;;;;;;;;24.31;53.73;100725.69;5041668;28;96834;-84
2021/07/06 00:06:50;;;;;;;;;;;;;;;24.21;54.11;100725.69;5039165;28;96719;-84
2021/07/06 00:09:17;;;;;;;;;;;;;;;24.34;53.38;100732.66;5038684;28;99490;-84
2021/07/06 00:11:44;;;;;;;;;;;;;;;24.33;53.64;100728.25;5038532;28;98671;-84
2021/07/06 00:14:10;;;;;;;;;;;;;;;24.40;53.33;100719.44;5045341;28;96965;-83
2021/07/06 00:16:37;;;;;;;;;;;;;;;24.37;53.29;100726.94;5047007;28;96738;-84
2021/07/06 00:19:03;;;;;;;;;;;;;;;24.15;53.31;100722.69;5056702;28;97017;-84
2021/07/06 00:21:38;;;;;;;;;;;;;;;24.24;53.12;100727.25;5056377;27;99880;-82
2021/07/06 00:24:05;;;;;;;;;;;;;;;24.33;53.05;100739.03;5062181;27;95793;-84
2021/07/06 00:26:32;;;;;;;;;;;;;;;24.28;53.66;100742.19;5050795;27;96948;-83
2021/07/06 00:28:58;;;;;;;;;;;;;;;24.16;54.81;100732.47;5043420;28;100156;-83
2021/07/06 00:31:25;;;;;;;;;;;;;;;24.21;54.92;100741.03;5044419;28;96822;-84
2021/07/06 00:33:52;;;;;;;;;;;;;;;24.09;55.39;100739.44;5041731;28;96656;-84
2021/07/06 00:36:19;;;;;;;;;;;;;;;24.21;54.97;100743.75;5052515;27;96950;-84
2021/07/06 00:38:47;;;;;;;;;;;;;;;24.20;55.44;100734.78;5059411;28;99330;-84
2021/07/06 00:41:13;;;;;;;;;;;;;;;24.25;54.66;100734.34;5052552;28;96807;-82
2021/07/06 00:43:40;;;;;;;;;;;;;;;24.41;53.91;100731.94;5036018;28;96677;-82
2021/07/06 00:46:07;;;;;;;;;;;;;;;24.50;53.49;100735.59;5053540;27;96910;-84
2021/07/06 00:48:33;;;;;;;;;;;;;;;24.61;53.13;100739.00;5041204;28;100550;-84
2021/07/06 00:51:00;;;;;;;;;;;;;;;24.52;53.18;100733.63;5038915;27;100640;-82
2021/07/06 00:53:28;;;;;;;;;;;;;;;24.40;53.69;100732.94;5041206;28;96741;-83
2021/07/06 00:55:58;;;;;;;;;;;;;;;24.32;53.95;100732.78;5037411;28;96838;-83
2021/07/06 00:58:25;;;;;;;;;;;;;;;24.33;54.11;100739.03;5021363;28;99294;-83
2021/07/06 01:00:51;;;;;;;;;;;;;;;24.46;54.56;100728.81;5035677;27;99103;-83
2021/07/06 01:03:20;;;;;;;;;;;;;;;24.48;53.25;100722.25;5039226;28;96849;-83
2021/07/06 01:05:47;;;;;;;;;;;;;;;24.55;53.01;100719.81;5037966;28;96870;-84
2021/07/06 01:08:13;;;;;;;;;;;;;;;24.59;52.86;100721.25;5023671;28;99868;-83
2021/07/06 01:10:39;;;;;;;;;;;;;;;24.67;52.73;100715.97;5031724;28;97702;-83
2021/07/06 01:13:08;;;;;;;;;;;;;;;24.80;52.27;100716.50;5019453;27;98322;-84
2021/07/06 01:15:35;;;;;;;;;;;;;;;24.60;52.47;100714.84;5038657;28;96948;-82
2021/07/06 01:18:03;;;;;;;;;;;;;;;24.71;52.12;100711.13;5045298;27;100399;-84
2021/07/06 01:20:30;;;;;;;;;;;;;;;24.66;52.33;100713.41;5036766;27;97513;-83
2021/07/06 01:23:00;;;;;;;;;;;;;;;24.60;52.56;100714.84;5040593;27;96757;-84
2021/07/06 01:25:28;;;;;;;;;;;;;;;24.30;53.39;100717.72;5040077;28;96879;-84
2021/07/06 01:27:55;;;;;;;;;;;;;;;24.34;53.42;100716.44;5012423;28;98598;-84
2021/07/06 01:30:21;;;;;;;;;;;;;;;24.08;54.85;100717.00;5034726;27;99721;-83
2021/07/06 01:32:48;;;;;;;;;;;;;;;24.02;55.43;100714.88;5047475;27;96878;-84
2021/07/06 01:35:16;;;;;;;;;;;;;;;23.90;55.84;100718.66;5037402;28;96915;-83
2021/07/06 01:37:46;;;;;;;;;;;;;;;23.81;56.45;100708.72;5030386;28;101494;-82
2021/07/06 01:40:14;;;;;;;;;;;;;;;23.85;56.33;100710.16;5035597;27;100369;-83
2021/07/06 01:42:41;;;;;;;;;;;;;;;23.81;56.33;100711.44;5033296;28;96988;-83
2021/07/06 01:45:09;;;;;;;;;;;;;;;23.86;56.45;100708.31;5036762;27;96846;-83
2021/07/06 01:47:38;;;;;;;;;;;;;;;23.74;57.03;100712.97;5026447;28;98148;-83
2021/07/06 01:50:06;;;;;;;;;;;;;;;23.67;57.33;100710.00;5035008;28;98139;-83
2021/07/06 01:52:32;;;;;;;;;;;;;;;23.68;57.55;100716.25;5034610;27;97389;-83
2021/07/06 01:54:59;;;;;;;;;;;;;;;23.68;57.41;100711.69;5039650;28;98987;-83
2021/07/06 01:57:27;;;;;;;;;;;;;;;24.00;56.18;100706.06;5038818;28;100571;-84
2021/07/06 01:59:54;;;;;;;;;;;;;;;23.94;55.94;100703.06;5034682;27;98019;-84
2021/07/06 02:02:20;;;;;;;;;;;;;;;24.04;55.70;100709.31;5040820;27;96872;-84
2021/07/06 02:04:49;;;;;;;;;;;;;;;23.88;55.55;100700.94;5041014;28;96820;-83
2021/07/06 02:07:16;;;;;;;;;;;;;;;23.82;55.77;100705.03;5034141;28;99552;-83
2021/07/06 02:09:45;;;;;;;;;;;;;;;23.70;55.87;100712.38;5016653;28;97489;-84
2021/07/06 02:12:12;;;;;;;;;;;;;;;23.80;55.49;100709.72;5041104;28;98582;-83
2021/07/06 02:14:39;;;;;;;;;;;;;;;23.70;55.68;100719.63;5032915;27;97584;-83
2021/07/06 02:17:06;;;;;;;;;;;;;;;23.80;55.61;100717.81;5037800;28;100049;-83
2021/07/06 02:19:32;;;;;;;;;;;;;;;23.80;55.96;100709.72;5040374;28;100515;-82
2021/07/06 02:21:59;;;;;;;;;;;;;;;23.81;55.28;100712.28;5042960;27;96937;-83
2021/07/06 02:24:25;;;;;;;;;;;;;;;23.93;54.36;100702.22;5040351;27;97584;-82
2021/07/06 02:26:53;;;;;;;;;;;;;;;23.92;54.50;100714.00;5035502;27;101062;-83
2021/07/06 02:29:20;;;;;;;;;;;;;;;23.87;54.10;100705.47;5036484;27;99470;-83
2021/07/06 02:31:48;;;;;;;;;;;;;;;23.90;54.35;100701.63;5038903;28;96829;-83
2021/07/06 02:34:15;;;;;;;;;;;;;;;24.16;53.53;100695.53;5042478;27;96957;-84
2021/07/06 02:36:41;;;;;;;;;;;;;;;24.22;52.94;100694.97;5039048;27;100872;-84
2021/07/06 02:39:07;;;;;;;;;;;;;;;24.28;53.21;100690.03;5040463;27;98098;-84
2021/07/06 02:41:34;;;;;;;;;;;;;;;23.98;53.46;100691.84;5047343;28;96784;-84
2021/07/06 02:44:00;;;;;;;;;;;;;;;24.21;53.08;100684.34;5050548;27;96893;-83
2021/07/06 02:46:26;;;;;;;;;;;;;;;24.09;52.97;100688.16;5042517;28;97264;-84
2021/07/06 02:51:43;;;;;;;;;;;;;;;24.15;53.53;100691.16;5045327;27;97921;-84
2021/07/06 02:54:10;;;;;;;;;;;;;;;24.10;54.02;100689.84;5055268;27;96751;-83
2021/07/06 02:56:36;;;;;;;;;;;;;;;23.86;54.98;100684.88;5051991;27;101059;-85
2021/07/06 02:59:05;;;;;;;;;;;;;;;23.85;55.19;100683.16;5054302;28;100341;-84
2021/07/06 03:01:31;;;;;;;;;;;;;;;23.84;55.31;100673.34;5048509;27;97559;-84
2021/07/06 03:03:59;;;;;;;;;;;;;;;23.81;54.61;100666.41;5041209;28;96757;-84
2021/07/06 03:06:28;;;;;;;;;;;;;;;24.10;53.94;100669.09;5050767;27;98630;-83
2021/07/06 03:08:58;;;;;;;;;;;;;;;23.99;54.27;100669.25;5053930;28;98274;-83
2021/07/06 03:11:24;;;;;;;;;;;;;;;23.85;54.43;100664.28;5056870;27;96774;-85
2021/07/06 03:13:51;;;;;;;;;;;;;;;23.78;55.08;100658.59;5062316;28;96539;-84
2021/07/06 03:16:17;;;;;;;;;;;;;;;23.85;54.81;100661.56;5060607;27;98204;-83
2021/07/06 03:18:44;;;;;;;;;;;;;;;23.81;54.97;100666.41;5066299;27;96924;-84
2021/07/06 03:21:12;;;;;;;;;;;;;;;23.87;54.72;100672.25;5059265;27;96648;-83
2021/07/06 03:23:38;;;;;;;;;;;;;;;23.73;55.24;100671.66;5063746;27;96699;-83
2021/07/06 03:26:04;;;;;;;;;;;;;;;23.78;55.21;100669.38;5045485;27;97894;-84
2021/07/06 03:28:31;;;;;;;;;;;;;;;23.75;55.46;100672.38;5059561;27;98818;-84
2021/07/06 03:30:58;;;;;;;;;;;;;;;24.02;54.82;100674.38;5060270;27;96305;-83
2021/07/06 03:33:25;;;;;;;;;;;;;;;23.69;55.94;100677.47;5059627;27;96261;-84
2021/07/06 03:35:51;;;;;;;;;;;;;;;23.68;55.87;100678.47;5063254;27;100110;-83
2021/07/06 03:38:19;;;;;;;;;;;;;;;23.92;55.13;100678.91;5064085;27;96771;-84
2021/07/06 03:40:46;;;;;;;;;;;;;;;24.10;54.59;100674.50;5064813;27;95856;-83
2021/07/06 03:43:12;;;;;;;;;;;;;;;24.05;54.46;100674.09;5055971;27;95861;-83
2021/07/06 03:45:39;;;;;;;;;;;;;;;24.08;54.18;100675.66;5069839;27;98183;-83
2021/07/06 03:48:06;;;;;;;;;;;;;;;24.05;53.95;100671.38;5064335;27;99799;-82
2021/07/06 03:50:32;;;;;;;;;;;;;;;24.11;53.94;100676.22;5072767;27;96257;-84
2021/07/06 03:53:00;;;;;;;;;;;;;;;24.28;53.54;100674.69;5063552;27;96011;-82
2021/07/06 03:55:28;;;;;;;;;;;;;;;24.07;54.09;100677.50;5063607;27;99178;-83
2021/07/06 03:57:55;;;;;;;;;;;;;;;24.01;54.32;100680.78;5063839;27;99867;-83
2021/07/06 04:00:22;;;;;;;;;;;;;;;24.22;53.66;100677.94;5061049;27;96622;-82
2021/07/06 04:02:49;;;;;;;;;;;;;;;24.03;53.83;100673.34;5064008;27;96005;-84
2021/07/06 04:05:16;;;;;;;;;;;;;;;24.18;53.37;100677.34;5058047;27;96646;-84
2021/07/06 04:07:43;;;;;;;;;;;;;;;24.29;53.13;100675.50;5043679;28;97696;-84
2021/07/06 04:10:12;;;;;;;;;;;;;;;24.45;52.53;100673.94;5054214;27;96641;-82
2021/07/06 04:12:41;;;;;;;;;;;;;;;24.39;52.62;100669.09;5054843;28;96514;-84
2021/07/06 04:15:08;;;;;;;;;;;;;;;24.33;52.82;100668.84;5041598;28;100422;-83
2021/07/06 04:17:35;;;;;;;;;;;;;;;24.45;52.37;100663.13;5040959;28;97778;-84
2021/07/06 04:20:02;;;;;;;;;;;;;;;24.36;52.41;100671.22;5050725;28;96560;-85
2021/07/06 04:22:29;;;;;;;;;;;;;;;24.22;52.90;100678.78;5050345;28;96795;-83
2021/07/06 04:24:55;;;;;;;;;;;;;;;24.08;53.47;100678.34;5049122;28;98117;-84
2021/07/06 04:27:22;;;;;;;;;;;;;;;24.05;53.10;100684.03;5046003;28;98029;-84
2021/07/06 04:29:50;;;;;;;;;;;;;;;24.19;52.67;100684.47;5042487;28;96621;-84
2021/07/06 04:32:16;;;;;;;;;;;;;;;24.09;53.00;100683.59;5038894;28;96947;-82
2021/07/06 04:34:43;;;;;;;;;;;;;;;24.07;53.02;100682.03;5038219;28;98997;-83
2021/07/06 04:37:11;;;;;;;;;;;;;;;24.07;53.17;100679.34;5040417;28;99486;-84
2021/07/06 04:39:37;;;;;;;;;;;;;;;24.21;52.88;100676.25;5030637;28;97316;-83
2021/07/06 04:42:04;;;;;;;;;;;;;;;24.32;52.14;100669.81;5042955;28;96850;-85
2021/07/06 04:44:31;;;;;;;;;;;;;;;24.76;51.62;100677.25;5039813;28;97861;-83
2021/07/06 04:46:59;;;;;;;;;;;;;;;24.84;50.98;100671.13;5038251;28;98219;-82
2021/07/06 04:49:27;;;;;;;;;;;;;;;24.80;51.16;100681.38;5042369;28;97000;-83
2021/07/06 04:51:53;;;;;;;;;;;;;;;25.00;50.61;100676.78;5019890;28;96899;-82
2021/07/06 04:54:23;;;;;;;;;;;;;;;25.05;50.59;100682.59;5033884;28;98912;-84
2021/07/06 04:56:51;;;;;;;;;;;;;;;25.09;50.36;100688.53;5049663;27;99107;-83
2021/07/06 04:59:18;;;;;;;;;;;;;;;25.38;49.20;100678.44;5058795;27;96959;-84
2021/07/06 05:01:45;;;;;;;;;;;;;;;25.47;48.99;100674.81;5048311;27;96713;-84
2021/07/06 05:04:14;;;;;;;;;;;;;;;25.28;49.56;100666.81;5113970;22;100323;-83
2021/07/06 05:06:41;;;;;;;;;;;;;;;25.11;49.44;100676.59;5049938;27;98317;-83
2021/07/06 05:09:09;;;;;;;;;;;;;;;25.50;48.65;100673.69;5060389;27;96870;-84
2021/07/06 05:11:35;;;;;;;;;;;;;;;25.00;50.17;100683.06;5052002;27;98303;-83
2021/07/06 05:14:02;;;;;;;;;;;;;;;24.71;50.90;100678.69;5063068;27;99102;-82
2021/07/06 05:16:30;;;;;;;;;;;;;;;25.20;49.67;100673.00;5058006;27;98828;-82
2021/07/06 05:18:56;;;;;;;;;;;;;;;25.35;49.42;100671.47;5045391;27;96985;-82
2021/07/06 05:21:26;;;;;;;;;;;;;;;25.68;48.50;100680.84;5061445;27;96651;-82
2021/07/06 05:23:53;;;;;;;;;;;;;;;25.54;49.09;100681.31;5046602;27;99045;-82
2021/07/06 05:26:19;;;;;;;;;;;;;;;25.90;47.98;100684.13;5058503;27;97576;-84
2021/07/06 05:28:46;;;;;;;;;;;;;;;25.71;48.44;100683.25;5067298;27;97402;-83
2021/07/06 05:31:13;;;;;;;;;;;;;;;25.92;47.71;100679.41;5066714;27;96966;-83
2021/07/06 05:33:39;;;;;;;;;;;;;;;26.21;47.11;100680.00;5072832;27;97046;-84
2021/07/06 05:36:06;;;;;;;;;;;;;;;26.49;46.48;100665.34;5076183;27;97430;-84
2021/07/06 05:38:37;;;;;;;;;;;;;;;26.91;45.16;100662.75;5064881;27;101167;-83
2021/07/06 05:41:09;;;;;;;;;;;;;;;26.32;46.92;100671.63;5071721;27;96747;-82
2021/07/06 05:43:36;;;;;;;;;;;;;;;25.68;48.01;100672.72;5066806;27;99577;-83
2021/07/06 05:46:03;;;;;;;;;;;;;;;26.12;47.62;100664.69;5066189;27;98092;-82
2021/07/06 05:48:30;;;;;;;;;;;;;;;26.80;46.23;100673.00;5065812;27;97708;-83
2021/07/06 05:50:57;;;;;;;;;;;;;;;27.10;45.25;100667.09;5070832;27;97842;-83
2021/07/06 05:53:25;;;;;;;;;;;;;;;27.15;44.93;100670.16;5071892;27;100385;-83
2021/07/06 05:56:10;;;;;;;;;;;;;;;27.10;44.95;100663.53;5053875;27;98775;-83
2021/07/06 05:58:49;;;;;;;;;;;;;;;27.08;45.12;100666.41;5063643;27;96629;-83
2021/07/06 06:01:18;;;;;;;;;;;;;;;27.27;44.83;100663.44;5075015;27;97078;-82
2021/07/06 06:03:50;;;;;;;;;;;;;;;26.59;46.23;100668.78;5069476;27;100036;-84
2021/07/06 06:06:16;;;;;;;;;;;;;;;26.98;45.43;100654.00;5055205;27;98642;-82
2021/07/06 06:08:43;;;;;;;;;;;;;;;27.01;45.30;100654.50;5055695;27;96527;-81
2021/07/06 06:11:11;;;;;;;;;;;;;;;27.62;43.95;100669.69;5055341;27;96206;-85
2021/07/06 06:13:39;;;;;;;;;;;;;;;26.80;45.35;100667.56;5060387;27;97271;-83
2021/07/06 06:16:10;;;;;;;;;;;;;;;26.55;46.24;100661.16;5055232;27;98944;-84
2021/07/06 06:18:37;;;;;;;;;;;;;;;26.45;46.18;100658.53;5052062;27;96826;-82
2021/07/06 06:21:04;;;;;;;;;;;;;;;27.15;44.94;100655.75;5055321;27;96016;-83
2021/07/06 06:23:35;;;;;;;;;;;;;;;27.32;44.53;100646.66;5051628;27;100287;-83
2021/07/06 06:26:02;;;;;;;;;;;;;;;27.67;43.81;100640.16;5056968;27;99059;-84
2021/07/06 06:28:30;;;;;;;;;;;;;;;27.57;43.98;100640.28;5038546;27;95997;-83
2021/07/06 06:31:12;;;;;;;;;;;;;;;27.41;43.94;100642.97;5052064;27;96280;-84
2021/07/06 06:39:25;;;;;;;;;;;;;;;27.81;43.16;100642.22;5033076;27;96433;-82
2021/07/06 06:41:59;;;;;;;;;;;;;;;29.24;40.03;100637.75;5002379;28;96776;-84
2021/07/06 06:44:25;;;;;;;;;;;;;;;29.14;39.78;100631.72;5027207;28;96954;-80
2021/07/06 06:49:50;;;;;;;;;;;;;;;29.14;40.20;100626.25;5043566;27;96092;-82
2021/07/06 06:55:22;;;;;;;;;;;;;;;28.95;40.28;100621.22;5024180;28;98667;-85
2021/07/06 06:57:58;;;;;;;;;;;;;;;29.20;39.43;100630.16;5390607;22;98614;-81
2021/07/06 07:00:28;;;;;;;;;;;;;;;29.20;39.68;100624.69;5078521;27;96422;-84
2021/07/06 07:05:40;;;;;;;;;;;;;;;30.09;37.80;100643.22;5075336;27;98753;-85
2021/07/06 07:08:06;;;;;;;;;;;;;;;30.37;37.36;100644.34;5076163;27;99285;-85
2021/07/06 07:10:35;;;;;;;;;;;;;;;30.41;37.46;100642.91;5067506;27;95915;-87
2021/07/06 07:13:17;;;;;;;;;;;;;;;30.31;37.02;100639.63;5082915;27;96981;-84
2021/07/06 07:15:56;;;;;;;;;;;;;;;30.83;36.51;100644.22;5083163;27;98790;-86
2021/07/06 07:18:24;;;;;;;;;;;;;;;30.67;36.07;100638.94;5066330;27;99791;-85
2021/07/06 07:20:53;;;;;;;;;;;;;;;30.21;37.35;100641.75;5058831;27;96906;-85
2021/07/06 07:23:20;;;;;;;;;;;;;;;29.79;37.32;100644.13;5074833;27;96720;-85
2021/07/06 07:25:49;;;;;;;;;;;;;;;30.04;37.36;100648.38;5046560;27;97606;-85
2021/07/06 07:28:15;;;;;;;;;;;;;;;30.34;36.72;100635.66;5054986;28;101289;-85
2021/07/06 07:30:50;;;;;;;;;;;;;;;29.08;39.06;100637.00;5074439;27;96692;-85
2021/07/06 07:36:30;;;;;;;;;;;;;;;29.25;39.18;100639.47;5076509;27;96698;-84
2021/07/06 07:39:02;;;;;;;;;;;;;;;29.62;38.40;100643.34;5074332;27;99921;-86
2021/07/06 07:41:31;;;;;;;;;;;;;;;29.67;37.69;100640.94;5082532;27;96672;-84
2021/07/06 07:43:58;;;;;;;;;;;;;;;29.68;38.01;100639.91;5069774;27;96604;-86
2021/07/06 07:46:29;;;;;;;;;;;;;;;29.58;37.85;100645.59;5032914;28;99336;-85
2021/07/06 07:48:58;;;;;;;;;;;;;;;29.72;37.91;100646.72;5065311;27;100205;-86
2021/07/06 07:51:25;;;;;;;;;;;;;;;29.53;38.16;100637.13;5069408;27;97654;-85
2021/07/06 07:56:40;;;;;;;;;;;;;;;29.89;37.53;100652.88;5067723;27;98737;-86
2021/07/06 07:59:09;;;;;;;;;;;;;;;30.19;36.99;100659.31;5072882;27;100334;-85
2021/07/06 08:01:43;;;;;;;;;;;;;;;30.20;37.42;100655.53;5070880;27;97239;-86
2021/07/06 08:04:14;;;;;;;;;;;;;;;30.26;37.01;100661.09;5070298;27;96952;-85
2021/07/06 08:06:43;;;;;;;;;;;;;;;30.14;36.52;100657.13;5064269;27;99583;-84
2021/07/06 08:11:54;;;;;;;;;;;;;;;30.27;36.20;100640.16;5061271;27;96659;-87
2021/07/06 08:14:28;;;;;;;;;;;;;;;29.84;37.68;100641.69;5068006;27;96947;-86
2021/07/06 08:16:57;;;;;;;;;;;;;;;29.77;37.08;100643.44;5068006;27;98806;-84
2021/07/06 08:19:59;;;;;;;;;;;;;;;30.33;35.81;100656.63;5042271;27;97810;-87
2021/07/06 08:22:27;;;;;;;;;;;;;;;30.60;35.45;100647.03;5066625;27;96850;-85
2021/07/06 08:24:55;;;;;;;;;;;;;;;30.78;34.89;100654.84;5059151;27;96921;-89
2021/07/06 08:30:04;;;;;;;;;;;;;;;30.08;35.72;100645.09;5069831;27;98335;-86
2021/07/06 08:35:25;;;;;;;;;;;;;;;30.52;35.39;100649.00;5069133;27;96938;-86
2021/07/06 08:40:41;;;;;;;;;;;;;;;30.80;34.32;100641.84;5073495;27;98843;-86
2021/07/06 08:45:49;;;;;;;;;;;;;;;31.06;34.12;100636.81;5070827;27;96648;-87
2021/07/06 08:48:39;;;;;;;;;;;;;;;30.00;36.17;100647.03;5043711;28;98843;-86
2021/07/06 08:51:25;;;;;;;;;;;;;;;30.35;35.39;100642.81;5072850;27;97078;-88
2021/07/06 08:56:51;;;;;;;;;;;;;;;30.64;34.84;100626.53;5076395;27;96655;-88
2021/07/06 09:18:47;;;;;;;;;;;;;;;31.16;33.54;100626.44;5056505;27;97040;-87
2021/07/06 09:21:16;;;;;;;;;;;;;;;31.18;33.54;100618.91;5067609;27;100440;-85
2021/07/06 09:23:43;;;;;;;;;;;;;;;30.86;34.09;100619.28;5066527;27;99949;-85
2021/07/06 09:26:12;;;;;;;;;;;;;;;31.39;33.32;100626.28;5055442;27;96718;-86
2021/07/06 09:34:36;;;;;;;;;;;;;;;31.23;33.23;100637.44;5057813;27;99681;-87
2021/07/06 09:37:05;;;;;;;;;;;;;;;31.04;33.27;100624.38;5056910;28;96615;-87
2021/07/06 09:45:04;;;;;;;;;;;;;;;30.97;33.47;100610.63;5066941;27;99508;-86
2021/07/06 09:47:35;;;;;;;;;;;;;;;31.03;33.61;100611.75;5066952;27;96539;-86
2021/07/06 09:50:27;;;;;;;;;;;;;;;31.01;33.52;100608.38;5074365;27;96341;-83
2021/07/06 09:53:17;;;;;;;;;;;;;;;31.18;32.63;100597.06;5058221;27;97931;-85
2021/07/06 09:55:49;;;;;;;;;;;;;;;31.42;32.19;100603.22;5067909;27;98156;-86
2021/07/06 10:01:10;;;;;;;;;;;;;;;31.31;31.57;100603.75;5078495;27;96287;-84
2021/07/06 10:09:05;;;;;;;;;;;;;;;30.86;32.81;100586.53;5071562;27;96899;-87
2021/07/06 10:14:43;;;;;;;;;;;;;;;31.16;31.55;100582.78;5076072;27;98474;-87
2021/07/06 10:25:36;;;;;;;;;;;;;;;31.27;31.82;100590.47;5080954;27;99109;-86
2021/07/06 10:28:15;;;;;;;;;;;;;;;31.26;32.29;100587.91;5078664;27;99821;-86
2021/07/06 10:30:43;;;;;;;;;;;;;;;31.45;32.00;100586.44;5202556;22;98040;-87
2021/07/06 10:35:58;;;;;;;;;;;;;;;31.29;31.59;100582.09;5038314;28;100137;-87
2021/07/06 10:38:41;;;;;;;;;;;;;;;31.46;31.70;100582.69;5038099;28;100568;-87
2021/07/06 10:41:14;;;;;;;;;;;;;;;31.07;32.07;100570.28;5037125;28;96867;-88
2021/07/06 10:43:58;;;;;;;;;;;;;;;31.30;31.54;100581.06;5036861;28;96689;-87
2021/07/06 10:46:48;;;;;;;;;;;;;;;31.41;31.24;100576.97;5030639;28;99493;-86
2021/07/06 10:49:31;;;;;;;;;;;;;;;31.54;30.72;100563.44;5023282;28;99007;-85
2021/07/06 10:51:59;;;;;;;;;;;;;;;31.06;31.60;100554.09;5027395;28;96748;-87
2021/07/06 10:54:30;;;;;;;;;;;;;;;31.00;31.35;100563.84;5010607;28;97688;-86
2021/07/06 10:57:00;;;;;;;;;;;;;;;31.35;30.97;100569.56;5037182;28;98502;-86
2021/07/06 10:59:34;;;;;;;;;;;;;;;31.28;31.39;100558.56;5034498;28;98841;-87
2021/07/06 11:04:55;;;;;;;;;;;;;;;30.95;31.90;100554.56;5023788;28;96843;-87
2021/07/06 11:10:29;;;;;;;;;;;;;;;31.46;31.30;100561.69;5018996;28;99338;-84
2021/07/06 11:12:58;;;;;;;;;;;;;;;31.77;30.84;100563.31;5023034;28;96631;-85
2021/07/06 11:15:28;;;;;;;;;;;;;;;31.76;31.19;100562.44;5025356;28;96619;-86
2021/07/06 11:18:09;;;;;;;;;;;;;;;31.84;30.98;100553.25;5019750;28;97004;-87
2021/07/06 11:20:38;;;;;;;;;;;;;;;31.52;31.48;100547.25;5027361;28;99972;-86
2021/07/06 11:23:07;;;;;;;;;;;;;;;31.76;30.97;100539.75;5029736;28;96694;-85
2021/07/06 11:25:38;;;;;;;;;;;;;;;31.48;31.84;100547.84;5018648;28;96751;-86
2021/07/06 11:28:06;;;;;;;;;;;;;;;31.68;31.35;100543.47;5024915;28;98208;-86
2021/07/06 11:30:41;;;;;;;;;;;;;;;31.47;31.95;100554.34;5028778;28;98093;-86
2021/07/06 11:35:54;;;;;;;;;;;;;;;31.56;30.83;100564.13;5039365;28;96707;-87
2021/07/06 11:38:23;;;;;;;;;;;;;;;32.15;30.52;100563.84;5047800;28;98211;-86
2021/07/06 11:40:53;;;;;;;;;;;;;;;32.26;30.06;100557.81;5045828;28;99858;-86
2021/07/06 11:43:22;;;;;;;;;;;;;;;32.09;30.47;100545.50;5038091;28;96866;-85
2021/07/06 11:45:51;;;;;;;;;;;;;;;32.36;30.02;100536.47;5042962;28;96741;-86
2021/07/06 11:48:21;;;;;;;;;;;;;;;32.26;30.39;100535.97;5039632;28;99250;-86
2021/07/06 11:50:51;;;;;;;;;;;;;;;32.36;30.26;100541.94;5046173;27;99544;-85
2021/07/06 11:53:26;;;;;;;;;;;;;;;32.35;29.91;100545.72;5042839;28;96810;-86
2021/07/06 11:55:54;;;;;;;;;;;;;;;32.19;30.60;100548.72;5044588;28;96767;-86
2021/07/06 11:58:26;;;;;;;;;;;;;;;32.43;29.64;100548.25;5048266;27;98332;-86
2021/07/06 12:01:05;;;;;;;;;;;;;;;32.51;29.38;100531.69;5039522;28;99136;-86
2021/07/06 12:03:34;;;;;;;;;;;;;;;32.97;29.30;100529.19;5050790;28;96742;-87
2021/07/06 12:08:43;;;;;;;;;;;;;;;32.62;29.04;100528.41;5050975;28;96749;-84
2021/07/06 12:11:11;;;;;;;;;;;;;;;32.97;28.62;100529.19;5048442;28;98042;-87
2021/07/06 12:13:39;;;;;;;;;;;;;;;33.54;27.51;100534.22;5057283;28;96681;-86
2021/07/06 12:16:15;;;;;;;;;;;;;;;33.46;28.23;100522.63;5049606;28;96522;-87
2021/07/06 12:18:52;;;;;;;;;;;;;;;33.13;28.62;100536.22;5049266;27;98442;-86
2021/07/06 12:21:28;;;;;;;;;;;;;;;32.77;28.42;100531.00;5044943;28;99372;-87
2021/07/06 12:23:58;;;;;;;;;;;;;;;33.50;27.94;100522.00;5042898;28;96870;-84
2021/07/06 12:26:32;;;;;;;;;;;;;;;33.14;28.44;100518.75;5042675;28;97355;-89
2021/07/06 12:29:08;;;;;;;;;;;;;;;33.57;27.89;100517.38;5045063;28;97789;-92
2021/07/06 12:31:38;;;;;;;;;;;;;;;33.86;27.61;100515.31;5051593;28;100458;-93
2021/07/06 12:34:07;;;;;;;;;;;;;;;33.92;27.51;100506.25;5043649;28;96801;-91
2021/07/06 12:39:23;;;;;;;;;;;;;;;34.47;27.42;100498.56;5042145;27;96761;-90
2021/07/06 12:41:53;;;;;;;;;;;;;;;34.28;27.19;100489.31;5035721;22;97555;-91
2021/07/06 12:44:32;;;;;;;;;;;;;;;34.20;27.24;100498.59;5064602;27;96720;-90
2021/07/06 12:47:22;;;;;;;;;;;;;;;34.25;26.75;100498.84;5062700;27;96731;-89
2021/07/06 12:49:55;;;;;;;;;;;;;;;34.17;26.77;100493.56;5071889;27;99233;-90
2021/07/06 12:58:00;;;;;;;;;;;;;;;33.22;28.10;100493.91;5058209;27;96635;-92
2021/07/06 13:00:37;;;;;;;;;;;;;;;33.71;27.19;100496.34;5074740;27;98936;-92
2021/07/06 13:06:10;;;;;;;;;;;;;;;33.84;27.71;100496.34;5066620;27;96823;-91
2021/07/06 13:08:36;;;;;;;;;;;;;;;33.39;28.04;100508.94;5075006;27;96445;-90
2021/07/06 13:16:57;;;;;;;;;;;;;;;33.84;26.86;100509.19;5074509;27;96303;-89
2021/07/06 13:19:29;;;;;;;;;;;;;;;34.11;26.16;100493.56;5076408;27;96726;-90
2021/07/06 13:22:11;;;;;;;;;;;;;;;34.77;25.45;100495.09;5080433;27;99323;-88
2021/07/06 13:24:41;;;;;;;;;;;;;;;34.88;25.46;100495.47;5067905;27;99479;-85
2021/07/06 13:27:08;;;;;;;;;;;;;;;35.69;25.03;100507.47;5079110;27;95925;-90
2021/07/06 13:29:35;;;;;;;;;;;;;;;35.75;24.53;100502.97;5082624;27;96885;-91
2021/07/06 13:32:01;;;;;;;;;;;;;;;35.24;24.90;100500.38;5064364;27;97776;-90
2021/07/06 13:34:28;;;;;;;;;;;;;;;35.63;24.94;100502.84;5082852;27;96785;-86
2021/07/06 13:36:55;;;;;;;;;;;;;;;36.01;24.85;100504.66;5080955;27;96119;-90
2021/07/06 13:39:26;;;;;;;;;;;;;;;36.19;24.08;100504.69;5326535;22;99854;-84
2021/07/06 13:42:02;;;;;;;;;;;;;;;37.53;22.34;100495.38;5060349;27;96889;-87
2021/07/06 13:44:29;;;;;;;;;;;;;;;37.49;21.27;100495.84;5042341;27;96658;-84
2021/07/06 13:47:01;;;;;;;;;;;;;;;36.46;22.26;100502.50;5059047;27;96094;-82
2021/07/06 13:49:33;;;;;;;;;;;;;;;36.05;22.81;100498.47;5056291;27;96049;-84
2021/07/06 13:54:49;;;;;;;;;;;;;;;36.02;23.14;100487.94;5022860;28;96520;-85
2021/07/06 13:57:32;;;;;;;;;;;;;;;35.93;23.51;100490.13;5053003;27;97288;-84
2021/07/06 14:05:12;;;;;;;;;;;;;;;36.85;23.20;100492.94;5045623;28;96168;-90
2021/07/06 14:07:40;;;;;;;;;;;;;;;36.27;24.00;100496.16;5046430;27;95918;-87
2021/07/06 14:15:46;;;;;;;;;;;;;;;38.82;20.23;100500.66;5037547;27;98838;-85
2021/07/06 14:21:04;;;;;;;;;;;;;;;37.11;22.28;100493.47;5035556;28;96727;-90
2021/07/06 14:23:43;;;;;;;;;;;;;;;38.50;20.49;100500.25;5016316;28;97696;-91
2021/07/06 14:26:13;;;;;;;;;;;;;;;41.51;17.83;100499.25;5027942;28;100201;-90
2021/07/06 14:28:44;;;;;;;;;;;;;;;44.57;14.85;100512.75;5031751;28;96817;-89
2021/07/06 14:31:31;;;;;;;;;;;;;;;44.99;14.20;100508.66;5038396;28;96741;-90
2021/07/06 14:34:10;;;;;;;;;;;;;;;48.58;11.61;100523.69;5036473;27;98777;-91
2021/07/06 14:36:36;;;;;;;;;;;;;;;45.67;13.88;100520.78;5034242;28;98053;-91
2021/07/06 14:41:52;;;;;;;;;;;;;;;47.86;11.95;100519.72;5036977;27;96235;-90
2021/07/06 14:44:18;;;;;;;;;;;;;;;42.93;15.51;100526.03;5034190;27;96915;-90
2021/07/06 14:46:51;;;;;;;;;;;;;;;41.37;18.17;100523.75;5033121;28;98013;-87
2021/07/06 14:49:36;;;;;;;;;;;;;;;40.50;18.47;100532.94;5036232;28;97170;-89
2021/07/06 14:52:05;;;;;;;;;;;;;;;38.54;20.24;100525.44;5024773;28;96866;-90
2021/07/06 14:54:35;;;;;;;;;;;;;;;38.21;20.58;100518.63;5031886;28;96676;-91
2021/07/06 14:57:05;;;;;;;;;;;;;;;37.29;21.93;100522.00;5032306;28;98955;-90
2021/07/06 14:59:33;;;;;;;;;;;;;;;36.69;22.34;100530.22;5022257;28;96795;-90
2021/07/06 15:07:42;;;;;;;;;;;;;;;34.89;25.10;100547.41;5034843;28;98809;-92
2021/07/06 15:10:13;;;;;;;;;;;;;;;34.74;24.99;100541.34;5035873;28;96681;-91
2021/07/06 15:18:01;;;;;;;;;;;;;;;34.40;26.06;100543.31;5033413;28;97303;-90
2021/07/06 15:20:29;;;;;;;;;;;;;;;34.15;25.83;100547.75;5038012;28;96585;-87